Farmington, UT

4:52 PM MDT on September 01, 2015 (GMT -0600)
APRSWXNET | | Change Station
CLOSE
Current Station
Personal Weather Station
Location: Kaysville, UT
Elevation: 4762 ft
Nearby Weather Stations

Elev 4762 ft 41.05 °N, 111.91 °W | Updated 31 minutes ago

Mostly Cloudy
Mostly Cloudy
86 °F
Feels Like 84 °F
N
0
Wind Variable Wind from NW
Gusts 11.0 mph

Today
High -- | Low -- °F
--% Chance of Precip.
Yesterday
High -- | Low -- °F
Precip. -- in
6:54 AM 8:00 PM
Waning Gibbous, 86% visible
Pressure 29.78 in
Visibility 10.0 miles
Clouds Scattered Clouds 10000 ft
Scattered Clouds 13000 ft
Heat Index 84 °F
Dew Point 52 °F
Humidity 31%
Rainfall in
Snow Depth Not available.
UV 5 out of 12
Pollen 8.90 out of 12
Air Quality Not available.
Flu Activity Not available.
METAR KHIF 012158Z AUTO 06005KT 10SM SCT100 SCT130 30/09 A2997 RMK AO2 LTG DSNT SE SLP084 T03040091
Pressure 29.78 in
Visibility 10.0 miles
Clouds Scattered Clouds 10000 ft
Scattered Clouds 13000 ft
Heat Index 84 °F
Dew Point 52 °F
Humidity 31%
Rainfall in
Snow Depth Not available.
UV 5 out of 12
Pollen 8.90 out of 12
Air Quality Not available.
Flu Activity Not available.
METAR KHIF 012158Z AUTO 06005KT 10SM SCT100 SCT130 30/09 A2997 RMK AO2 LTG DSNT SE SLP084 T03040091

10-Day Weather Forecast

×

Almanac

Astronomy

Sep. 01, 2015 Rise Set
Actual Time
Civil Twilight
Nautical Twilight
Astronomical Twilight
Moon
Length of Visible Light
Length of Day
Tomorrow will be .
, % of the Moon is Illuminated

Today's Extremes

State Highs State Lows

Community

WunderPhotos

Upload Photos

1,851,634 photos uploaded!

WunderBlogs® & News

Nearby

Air Quality

  Air Quality AQ Index Pollutant
Not available.

Snow Depth

Station Depth Elevation

Earthquake Activity

City Distance Mag. Time & Date
Minimum magnitude displayed is 2.5.

Coastal Water Temperatures

Place Temperature

Stations

Nearby Weather Stations

Station Location Temp. Windchill Dew Point Humidity Wind Precip. Elev Updated Type